Time;durP1;ratioP1;P1;durP2;ratioP2;P2;SDS_P1;SDS_P2;PMS_P1;PMS_P2;Temp;Humidity;BMP_temperature;BMP_pressure;BME280_temperature;BME280_humidity;BME280_pressure;Samples;Min_cycle;Max_cycle;Signal;HPM_P1;HPM_P2
2022/07/29 00:00:32;;;;;;;4.03;3.90;;;;;;;21.87;100.00;1456.72;5075522;28;20185;-64
2022/07/29 00:02:59;;;;;;;3.70;3.55;;;;;;;21.83;100.00;-821.19;5074389;28;20191;-65
2022/07/29 00:05:26;;;;;;;4.28;4.10;;;;;;;21.66;100.00;-3747.06;5075465;28;20275;-64
2022/07/29 00:07:53;;;;;;;4.55;4.35;;;;;;;21.62;100.00;-5046.19;5075031;28;20204;-64
2022/07/29 00:10:20;;;;;;;4.90;4.65;;;;;;;21.53;100.00;-6668.94;5075294;28;20189;-65
2022/07/29 00:12:48;;;;;;;4.93;4.72;;;;;;;21.40;100.00;-8938.63;5075329;28;20239;-65
2022/07/29 00:15:15;;;;;;;4.93;3.72;;;;;;;21.44;100.00;-9587.41;5075114;28;20184;-64
2022/07/29 00:17:42;;;;;;;4.65;4.25;;;;;;;21.32;100.00;-9910.38;5075603;28;20262;-65
2022/07/29 00:20:10;;;;;;;5.50;4.95;;;;;;;21.34;100.00;-10882.72;5075182;28;20567;-65
2022/07/29 00:22:41;;;;;;;5.03;4.72;;;;;;;21.37;100.00;-11207.03;5074845;28;20235;-65
2022/07/29 00:25:08;;;;;;;4.65;4.35;;;;;;;21.36;100.00;-11530.94;5075083;28;20282;-66
2022/07/29 00:27:36;;;;;;;8.93;4.82;;;;;;;21.41;100.00;-11531.56;5075324;28;20185;-65
2022/07/29 00:30:04;;;;;;;4.50;4.20;;;;;;;21.16;100.00;-11204.50;5075132;28;20636;-65
2022/07/29 00:32:31;;;;;;;4.80;4.55;;;;;;;21.46;100.00;-10559.97;5074962;28;20209;-66
2022/07/29 00:37:42;;;;;;;6.25;4.15;;;;;;;21.29;100.00;-8937.72;5075413;28;20651;-65
2022/07/29 00:40:10;;;;;;;4.45;4.15;;;;;;;21.13;100.00;-11851.78;5074809;28;20275;-66
2022/07/29 00:42:43;;;;;;;4.45;4.30;;;;;;;21.20;100.00;-11528.88;5074732;28;20181;-65
2022/07/29 00:45:12;;;;;;;4.50;4.20;;;;;;;21.22;100.00;-12176.81;5074416;28;20196;-65
2022/07/29 00:47:39;;;;;;;4.80;4.60;;;;;;;21.05;100.00;-11850.69;5074612;28;20640;-65
2022/07/29 00:50:08;;;;;;;4.88;4.43;;;;;;;21.23;100.00;-11529.25;5075146;28;20223;-65
2022/07/29 00:52:37;;;;;;;6.78;4.68;;;;;;;21.23;100.00;-11853.03;5074189;28;20209;-65
2022/07/29 00:55:04;;;;;;;4.72;4.53;;;;;;;21.21;100.00;-11852.84;5074023;28;20634;-65
2022/07/29 00:57:31;;;;;;;4.82;4.40;;;;;;;21.15;100.00;-12175.81;5074698;28;20195;-64
2022/07/29 00:59:58;;;;;;;4.63;4.32;;;;;;;21.18;100.00;-12176.16;5074200;28;20238;-64
2022/07/29 01:02:26;;;;;;;4.43;4.22;;;;;;;21.27;100.00;-11853.66;5074168;28;20188;-65
2022/07/29 01:04:55;;;;;;;4.22;3.80;;;;;;;21.26;100.00;-10233.81;5075214;28;20196;-65
2022/07/29 01:07:21;;;;;;;4.80;4.50;;;;;;;21.24;100.00;-7964.72;5074480;28;20655;-65
2022/07/29 01:09:48;;;;;;;5.18;4.88;;;;;;;21.16;100.00;-7964.16;5074476;28;20195;-65
2022/07/29 01:12:19;;;;;;;5.50;5.03;;;;;;;21.12;100.00;-8612.13;5073899;28;20235;-65
2022/07/29 01:14:46;;;;;;;8.30;5.70;;;;;;;21.13;100.00;-3422.25;5074007;28;20191;-64
2022/07/29 01:17:19;;;;;;;5.82;5.38;;;;;;;21.13;100.00;-4720.50;5073634;28;20185;-65
2022/07/29 01:19:52;;;;;;;5.82;5.25;;;;;;;20.96;100.00;-6341.84;5074164;28;20203;-64
2022/07/29 01:22:29;;;;;;;6.28;5.30;;;;;;;21.05;100.00;-6666.53;5074185;28;20593;-64
2022/07/29 01:25:27;;;;;;;5.78;5.38;;;;;;;20.70;100.00;-6988.81;5073881;28;20180;-65
2022/07/29 01:28:10;;;;;;;7.80;5.30;;;;;;;20.92;100.00;-7962.41;5074774;28;20201;-65
2022/07/29 01:30:40;;;;;;;5.40;5.10;;;;;;;20.82;100.00;-8933.66;5073993;28;20276;-65
2022/07/29 01:33:48;;;;;;;5.63;5.38;;;;;;;20.87;100.00;-8610.09;5073823;28;20209;-64
2022/07/29 01:36:01;;;;;;;6.53;5.78;;;;;;;20.89;100.00;-8610.25;5073841;28;20193;-65
2022/07/29 01:38:29;;;;;;;5.10;4.80;;;;;;;20.93;100.00;-7314.31;5073875;28;20276;-65
2022/07/29 01:41:03;;;;;;;5.60;5.05;;;;;;;20.97;100.00;-6341.88;5074393;28;20192;-65
2022/07/29 01:43:45;;;;;;;5.88;5.47;;;;;;;20.95;100.00;-6990.25;5073693;28;20203;-64
2022/07/29 01:46:20;;;;;;;8.07;6.35;;;;;;;20.98;100.00;-6666.19;5073894;28;20259;-64
2022/07/29 01:48:49;;;;;;;6.43;5.95;;;;;;;20.87;100.00;-6341.44;5073272;28;20184;-64
2022/07/29 01:51:21;;;;;;;9.35;6.60;;;;;;;21.04;100.00;-5044.78;5073671;28;20199;-64
2022/07/29 01:53:55;;;;;;;6.72;6.07;;;;;;;21.02;100.00;-4395.84;5073604;28;20209;-65
2022/07/29 01:56:25;;;;;;;11.20;6.35;;;;;;;21.09;100.00;-3097.63;5073664;28;20185;-64
2022/07/29 01:58:55;;;;;;;7.45;6.75;;;;;;;21.10;100.00;-1149.16;5073209;28;20537;-64
2022/07/29 02:01:25;;;;;;;6.75;6.15;;;;;;;20.94;100.00;-175.34;5072962;28;20192;-65
2022/07/29 02:03:54;;;;;;;5.72;5.32;;;;;;;20.99;100.00;-1149.56;5073199;28;20181;-65
2022/07/29 02:06:23;;;;;;;6.32;5.20;;;;;;;20.86;100.00;-3097.78;5072189;28;20184;-64
2022/07/29 02:08:52;;;;;;;5.53;5.25;;;;;;;20.87;100.00;-2124.03;5073490;28;20701;-64
2022/07/29 02:11:19;;;;;;;6.88;5.13;;;;;;;20.79;100.00;-500.91;5073336;28;20184;-64
2022/07/29 02:13:48;;;;;;;5.97;5.25;;;;;;;20.86;100.00;-500.56;5072660;28;20715;-65
2022/07/29 02:16:18;;;;;;;5.13;4.80;;;;;;;20.95;100.00;-824.94;5072775;28;20180;-64
2022/07/29 02:18:50;;;;;;;5.00;4.68;;;;;;;20.93;100.00;149.47;5072852;28;20675;-65
2022/07/29 02:21:22;;;;;;;5.68;5.15;;;;;;;20.88;100.00;-500.47;5072901;28;20659;-64
2022/07/29 02:23:50;;;;;;;5.15;4.35;;;;;;;20.88;100.00;-175.66;5071454;28;20181;-65
2022/07/29 02:26:18;;;;;;;5.13;4.67;;;;;;;21.07;100.00;1125.28;5072485;28;20184;-65
2022/07/29 02:28:47;;;;;;;5.43;5.13;;;;;;;21.05;100.00;1450.16;5072543;28;20185;-64
2022/07/29 02:31:15;;;;;;;5.57;4.83;;;;;;;20.95;100.00;-500.13;5072406;28;20184;-65
2022/07/29 02:33:43;;;;;;;5.03;4.55;;;;;;;20.86;100.00;-825.34;5073152;28;20215;-65
2022/07/29 02:36:12;;;;;;;5.20;4.80;;;;;;;20.89;100.00;-825.19;5072379;28;20191;-64
2022/07/29 02:38:51;;;;;;;5.35;4.88;;;;;;;20.94;100.00;-1799.22;5072244;28;20180;-65
2022/07/29 02:41:20;;;;;;;5.55;5.25;;;;;;;21.01;100.00;-1474.28;5072311;28;20184;-65
2022/07/29 02:43:51;;;;;;;5.73;5.43;;;;;;;21.03;100.00;-499.75;5072741;28;20196;-65
2022/07/29 02:46:21;;;;;;;5.13;4.80;;;;;;;20.94;100.00;-824.97;5072418;28;20184;-66
2022/07/29 02:48:56;;;;;;;6.07;4.90;;;;;;;20.92;100.00;-500.28;5072921;28;20687;-64
2022/07/29 02:51:31;;;;;;;6.95;5.93;;;;;;;20.86;100.00;-500.56;5072747;28;20267;-66
2022/07/29 02:54:03;;;;;;;8.18;5.78;;;;;;;20.88;100.00;-1474.69;5072814;28;20212;-65
2022/07/29 02:56:34;;;;;;;7.33;6.63;;;;;;;20.92;100.00;-2448.56;5072691;28;20705;-65
2022/07/29 02:59:06;;;;;;;7.70;7.05;;;;;;;20.76;100.00;-2773.34;5072176;28;20189;-65
2022/07/29 03:01:35;;;;;;;6.80;6.47;;;;;;;20.75;100.00;-4071.09;5071937;28;20196;-65
2022/07/29 03:04:05;;;;;;;6.45;6.15;;;;;;;20.69;100.00;-4071.03;5072484;28;20185;-64
2022/07/29 03:06:35;;;;;;;7.10;6.60;;;;;;;20.69;100.00;-3422.28;5072205;28;20189;-65
2022/07/29 03:09:03;;;;;;;22.87;9.70;;;;;;;20.81;100.00;-4395.53;5072007;28;20181;-65
2022/07/29 03:11:30;;;;;;;17.20;8.98;;;;;;;20.83;100.00;-5692.81;5072187;28;20683;-65
2022/07/29 03:13:58;;;;;;;14.77;9.60;;;;;;;20.73;100.00;-7313.06;5071630;28;20259;-65
2022/07/29 03:16:25;;;;;;;23.67;15.30;;;;;;;20.88;100.00;-6989.88;5071769;28;20192;-65
2022/07/29 03:18:53;;;;;;;33.47;17.15;;;;;;;20.89;100.00;-6017.28;5071951;28;20275;-64
2022/07/29 03:21:20;;;;;;;26.33;17.58;;;;;;;20.84;100.00;-3746.75;5072197;28;20192;-64
2022/07/29 03:23:48;;;;;;;14.32;12.77;;;;;;;20.95;100.00;-3746.78;5072083;28;20184;-65
2022/07/29 03:26:15;;;;;;;23.55;17.00;;;;;;;21.09;100.00;-3097.63;5072178;28;20236;-65
2022/07/29 03:28:42;;;;;;;27.50;18.03;;;;;;;21.53;100.00;1128.69;5070599;28;20560;-65
2022/07/29 03:31:09;;;;;;;26.75;17.65;;;;;;;22.08;100.00;10588.00;5071948;28;20189;-65
2022/07/29 03:33:39;;;;;;;25.27;18.30;;;;;;;22.53;100.00;29932.44;5072284;28;20204;-64
2022/07/29 03:36:06;;;;;;;28.42;16.98;;;;;;;22.94;100.00;44786.34;5072103;28;20188;-64
2022/07/29 03:38:37;;;;;;;24.27;16.92;;;;;;;22.76;100.00;52707.13;5071791;28;20188;-65
2022/07/29 03:41:10;;;;;;;29.92;17.02;;;;;;;22.75;100.00;47084.25;5071850;28;20185;-65
2022/07/29 03:43:39;;;;;;;22.00;16.85;;;;;;;22.85;100.00;48413.91;5072040;28;20197;-64
2022/07/29 03:46:08;;;;;;;26.83;16.08;;;;;;;22.90;100.00;50403.09;5071802;28;20185;-64
2022/07/29 03:48:38;;;;;;;35.47;16.98;;;;;;;22.89;100.00;56362.81;5072039;28;20181;-64
2022/07/29 03:51:04;;;;;;;25.15;15.80;;;;;;;23.05;100.00;56709.88;5071346;28;20188;-64
2022/07/29 03:53:34;;;;;;;31.98;15.52;;;;;;;23.54;100.00;70055.94;5071249;28;20215;-65
2022/07/29 03:56:03;;;;;;;28.42;16.20;;;;;;;23.68;100.00;83426.28;5071883;28;20184;-65
2022/07/29 03:58:32;;;;;;;29.50;14.85;;;;;;;24.05;100.00;106649.03;5072588;28;20189;-64
2022/07/29 04:00:59;;;;;;;29.73;13.55;;;;;;;24.29;100.00;106690.38;5071680;28;20709;-65
2022/07/29 04:03:26;;;;;;;11.52;6.57;;;;;;;24.50;100.00;52532.09;5071828;28;20185;-65
2022/07/29 04:06:02;;;;;;;6.05;4.00;;;;;;;24.67;100.00;30706.28;5071636;28;20583;-66
2022/07/29 04:08:28;;;;;;;3.72;3.63;;;;;;;24.79;100.00;28404.34;5071624;28;20640;-65
2022/07/29 04:10:56;;;;;;;4.10;3.70;;;;;;;24.95;100.00;35675.69;5071396;28;20184;-65
2022/07/29 04:13:23;;;;;;;25.80;10.48;;;;;;;25.14;100.00;68240.94;5071149;28;20228;-66
2022/07/29 04:15:51;;;;;;;23.35;11.65;;;;;;;25.24;100.00;107196.97;5071306;28;20185;-65
2022/07/29 04:18:18;;;;;;;25.23;13.10;;;;;;;25.31;100.00;152404.25;5071255;28;20181;-65
2022/07/29 04:20:45;;;;;;;20.23;11.68;;;;;;;25.34;100.00;152413.19;5071387;28;20189;-65
2022/07/29 04:23:12;;;;;;;24.05;12.80;;;;;;;25.23;100.00;152385.09;5069888;28;20185;-65
2022/07/29 04:25:39;;;;;;;27.83;12.55;;;;;;;25.28;100.00;152397.91;5071123;28;20181;-65
2022/07/29 04:28:07;;;;;;;19.60;12.15;;;;;;;25.39;100.00;152425.97;5071814;28;20246;-65
2022/07/29 04:30:36;;;;;;;20.63;12.23;;;;;;;25.44;100.00;152438.78;5075043;28;20189;-66
2022/07/29 04:33:05;;;;;;;15.80;12.15;;;;;;;25.68;100.00;152498.84;5074692;28;20192;-66
2022/07/29 04:35:36;;;;;;;19.70;12.73;;;;;;;25.74;100.00;152514.22;5074721;28;20204;-66
2022/07/29 04:38:03;;;;;;;28.63;12.57;;;;;;;25.71;100.00;152505.28;5075144;28;20235;-65
2022/07/29 04:40:30;;;;;;;21.52;12.55;;;;;;;25.86;100.00;152544.88;5074990;28;20189;-66
2022/07/29 04:42:57;;;;;;;20.83;11.57;;;;;;;25.90;100.00;152555.09;5075093;28;20283;-67
2022/07/29 04:45:24;;;;;;;16.23;11.65;;;;;;;26.23;100.00;152638.22;5075413;28;20183;-66
2022/07/29 04:47:51;;;;;;;13.13;11.90;;;;;;;26.58;100.00;152725.19;5074902;28;20536;-66
2022/07/29 04:50:20;;;;;;;23.45;10.98;;;;;;;26.88;100.00;152801.97;5074765;28;20189;-65
2022/07/29 04:52:46;;;;;;;17.95;6.65;;;;;;;27.23;100.00;152890.25;5074590;28;20195;-65
2022/07/29 04:55:13;;;;;;;10.90;7.78;;;;;;;27.41;100.00;152936.31;5074867;28;20575;-66
2022/07/29 04:57:40;;;;;;;10.48;6.95;;;;;;;27.60;100.00;152984.97;5075042;28;20195;-67
2022/07/29 05:00:09;;;;;;;5.68;4.93;;;;;;;27.50;100.00;152959.34;5073335;28;20554;-66
2022/07/29 05:02:35;;;;;;;4.57;4.25;;;;;;;27.89;100.00;153057.88;5074363;28;20227;-66
2022/07/29 05:05:02;;;;;;;8.15;7.38;;;;;;;28.19;100.00;153133.44;5074563;28;20185;-66
2022/07/29 05:07:31;;;;;;;9.50;7.40;;;;;;;28.36;100.00;153175.69;5074486;28;20199;-67
2022/07/29 05:09:57;;;;;;;14.88;8.25;;;;;;;28.46;100.00;153202.59;5075162;28;20189;-67
2022/07/29 05:12:24;;;;;;;9.82;7.53;;;;;;;28.54;100.00;153223.09;5075568;28;20228;-66
2022/07/29 05:14:51;;;;;;;7.90;7.15;;;;;;;28.80;100.00;153287.16;5072770;28;20209;-67
2022/07/29 05:17:18;;;;;;;7.25;6.75;;;;;;;29.15;100.00;153375.53;5074005;28;20189;-67
2022/07/29 05:19:45;;;;;;;16.55;7.93;;;;;;;29.26;100.00;153403.69;5074069;28;20212;-66
2022/07/29 05:22:12;;;;;;;7.85;7.22;;;;;;;29.00;100.00;153339.66;5074293;28;20184;-66
2022/07/29 05:24:41;;;;;;;7.57;6.88;;;;;;;28.96;100.00;153328.13;5076113;28;20188;-67
2022/07/29 05:27:07;;;;;;;8.48;7.78;;;;;;;28.85;100.00;153299.97;5075414;28;20187;-68
2022/07/29 05:29:34;;;;;;;8.02;7.30;;;;;;;28.86;100.00;153302.50;5074389;28;20223;-67
2022/07/29 05:32:01;;;;;;;7.85;7.43;;;;;;;28.73;100.00;153270.47;5074469;28;20189;-68
2022/07/29 05:34:28;;;;;;;15.27;7.07;;;;;;;28.90;100.00;153312.72;5074354;28;20211;-67
2022/07/29 05:36:55;;;;;;;7.30;6.68;;;;;;;28.88;100.00;153308.91;5074547;28;20220;-65
2022/07/29 05:39:22;;;;;;;7.32;6.60;;;;;;;28.80;100.00;153287.16;5073534;28;20187;-67
2022/07/29 05:41:50;;;;;;;7.63;6.93;;;;;;;28.77;100.00;153280.72;5073929;28;20187;-67
2022/07/29 05:44:18;;;;;;;11.10;6.35;;;;;;;28.87;100.00;153305.06;5074517;28;20195;-67
2022/07/29 05:46:45;;;;;;;9.20;6.32;;;;;;;28.91;100.00;153315.31;5073670;28;20195;-68
2022/07/29 05:49:12;;;;;;;6.40;5.82;;;;;;;29.15;100.00;153376.81;5073635;28;20185;-67
2022/07/29 05:51:39;;;;;;;6.18;5.70;;;;;;;29.19;100.00;153387.06;5073638;28;20181;-67
2022/07/29 05:54:06;;;;;;;10.68;6.00;;;;;;;29.44;100.00;153451.16;5073342;28;20207;-68
2022/07/29 05:56:33;;;;;;;6.30;5.90;;;;;;;29.64;100.00;153501.09;5073842;28;20188;-67
2022/07/29 05:59:02;;;;;;;7.22;6.65;;;;;;;29.62;100.00;153495.94;5074185;28;20192;-68
2022/07/29 06:01:29;;;;;;;11.07;5.78;;;;;;;29.91;100.00;153569.06;5072162;28;20184;-68
2022/07/29 06:03:56;;;;;;;7.82;5.10;;;;;;;29.90;100.00;153567.78;5073111;28;20192;-66
2022/07/29 06:06:23;;;;;;;6.25;5.32;;;;;;;30.59;100.00;153742.13;5073869;28;20654;-67
2022/07/29 06:08:50;;;;;;;8.65;5.00;;;;;;;31.02;100.00;153849.88;5072395;28;20188;-66
2022/07/29 06:11:17;;;;;;;7.45;4.80;;;;;;;31.47;100.00;153964.00;5073633;28;20197;-67
2022/07/29 06:13:44;;;;;;;6.18;4.53;;;;;;;31.48;100.00;153967.84;5073151;28;20258;-67
2022/07/29 06:16:12;;;;;;;6.57;6.18;;;;;;;32.04;100.00;154110.25;5073451;28;20196;-66
2022/07/29 06:18:39;;;;;;;6.57;3.95;;;;;;;32.34;100.00;154186.00;5073452;28;20181;-67
2022/07/29 06:21:09;;;;;;;6.60;4.47;;;;;;;32.92;100.00;154333.69;5071882;28;20192;-67
2022/07/29 06:23:37;;;;;;;5.82;4.30;;;;;;;33.04;100.00;154363.19;5073936;28;20181;-66
2022/07/29 06:26:04;;;;;;;4.95;4.20;;;;;;;32.84;100.00;154313.16;5073155;28;20180;-66
2022/07/29 06:28:31;;;;;;;4.63;3.90;;;;;;;32.46;97.82;154215.56;5073103;28;20196;-67
2022/07/29 06:30:58;;;;;;;15.93;5.85;;;;;;;32.31;100.00;154178.31;5073113;28;20201;-67
2022/07/29 06:33:26;;;;;;;6.22;3.90;;;;;;;33.03;97.65;154360.63;5072753;28;20216;-66
2022/07/29 06:35:53;;;;;;;25.38;6.75;;;;;;;33.87;100.00;154573.84;5072601;28;20205;-67
2022/07/29 06:38:21;;;;;;;12.80;6.28;;;;;;;33.63;100.00;154513.47;5072875;28;20188;-67
2022/07/29 06:41:04;;;;;;;14.77;6.15;;;;;;;34.16;100.00;154648.41;5072853;28;20528;-68
2022/07/29 06:43:35;;;;;;;16.95;5.35;;;;;;;34.08;98.04;154626.50;5073017;28;20224;-67
2022/07/29 06:46:03;;;;;;;11.07;5.47;;;;;;;34.42;96.48;154713.91;5071156;28;20238;-67
2022/07/29 06:48:33;;;;;;;7.22;4.22;;;;;;;34.42;93.83;154712.69;5085702;28;20192;-66
2022/07/29 06:51:01;;;;;;;17.50;5.45;;;;;;;33.37;100.00;154447.97;5093258;28;20195;-67
2022/07/29 06:53:28;;;;;;;12.68;5.18;;;;;;;32.85;100.00;154314.41;5092475;28;20538;-67
2022/07/29 06:55:55;;;;;;;11.75;4.63;;;;;;;32.83;100.00;154310.56;5093263;28;20555;-66
2022/07/29 06:58:23;;;;;;;25.38;5.35;;;;;;;33.21;100.00;154405.59;5092944;28;20275;-66
2022/07/29 07:00:50;;;;;;;10.40;4.68;;;;;;;33.42;95.52;154460.81;5092550;28;20190;-66
2022/07/29 07:03:17;;;;;;;12.93;4.88;;;;;;;33.86;91.13;154572.56;5092734;28;20192;-68
2022/07/29 07:05:46;;;;;;;33.67;5.72;;;;;;;34.02;91.30;154611.13;5092535;28;20184;-68
2022/07/29 07:08:15;;;;;;;13.20;4.57;;;;;;;34.57;87.07;154751.19;5092627;28;20195;-67
2022/07/29 07:10:43;;;;;;;26.00;4.82;;;;;;;34.77;83.19;154803.91;5092756;28;20190;-66
2022/07/29 07:13:11;;;;;;;11.57;4.47;;;;;;;34.45;84.28;154721.66;5091780;28;20231;-67
2022/07/29 07:15:38;;;;;;;6.28;4.20;;;;;;;33.46;88.82;154471.09;5092356;28;20218;-66
2022/07/29 07:18:06;;;;;;;5.45;4.00;;;;;;;33.37;88.56;154446.69;5092169;28;20583;-66
2022/07/29 07:20:33;;;;;;;5.35;4.18;;;;;;;33.19;87.12;154401.75;5092385;28;20312;-66
2022/07/29 07:23:02;;;;;;;4.45;4.10;;;;;;;32.94;86.76;154338.78;5091718;28;20188;-66
2022/07/29 07:25:29;;;;;;;5.20;4.20;;;;;;;32.79;86.82;154299.03;5091989;28;20184;-67
2022/07/29 07:27:56;;;;;;;7.43;4.03;;;;;;;32.39;91.07;154198.84;5092878;28;20187;-67
2022/07/29 07:30:23;;;;;;;14.98;5.72;;;;;;;32.54;88.58;154236.09;5092434;28;20184;-68
2022/07/29 07:32:50;;;;;;;12.00;5.40;;;;;;;32.69;87.04;154274.63;5091909;28;20188;-65
2022/07/29 07:35:17;;;;;;;6.35;5.22;;;;;;;33.10;88.58;154378.56;5091980;28;20214;-67
2022/07/29 07:37:47;;;;;;;7.63;4.28;;;;;;;33.25;82.02;154417.16;5092308;28;20184;-67
2022/07/29 07:40:15;;;;;;;10.10;4.15;;;;;;;33.24;81.07;154413.31;5092869;28;20195;-67
2022/07/29 07:42:42;;;;;;;6.35;4.63;;;;;;;33.13;83.22;154386.31;5091632;28;20555;-67
2022/07/29 07:45:10;;;;;;;10.00;4.30;;;;;;;33.29;85.18;154427.44;5092685;28;20274;-66
2022/07/29 07:47:38;;;;;;;6.60;4.40;;;;;;;33.21;85.73;154406.91;5092348;28;20214;-67
2022/07/29 07:50:06;;;;;;;12.13;4.55;;;;;;;33.24;88.29;154414.59;5093209;28;20176;-67
2022/07/29 07:52:33;;;;;;;5.95;4.50;;;;;;;33.41;85.70;154456.97;5091569;28;20195;-68
2022/07/29 07:55:00;;;;;;;11.48;4.47;;;;;;;33.03;83.98;154361.91;5091303;28;20203;-67
2022/07/29 07:57:29;;;;;;;4.30;3.88;;;;;;;33.11;81.09;154379.88;5092100;28;20267;-67
2022/07/29 07:59:56;;;;;;;3.53;3.33;;;;;;;33.15;80.54;154391.47;5090381;28;20188;-67
2022/07/29 08:02:22;;;;;;;3.50;3.20;;;;;;;33.28;79.83;154423.56;5091491;28;20190;-67
2022/07/29 08:04:49;;;;;;;7.05;3.75;;;;;;;32.86;81.66;154316.97;5095263;28;20244;-66
2022/07/29 08:07:16;;;;;;;3.60;3.30;;;;;;;32.95;83.20;154341.38;5095922;28;20568;-66
2022/07/29 08:09:43;;;;;;;4.03;3.38;;;;;;;33.05;82.25;154367.06;5095769;28;20218;-66
2022/07/29 08:12:10;;;;;;;3.88;3.47;;;;;;;33.01;84.44;154355.50;5095414;28;20661;-65
2022/07/29 08:14:39;;;;;;;3.75;3.45;;;;;;;32.89;85.56;154325.94;5095517;28;20581;-66
2022/07/29 08:17:06;;;;;;;5.65;3.80;;;;;;;33.02;86.02;154359.34;5095337;28;20180;-65
2022/07/29 08:19:34;;;;;;;5.43;3.13;;;;;;;33.44;84.89;154465.94;5095951;28;20188;-66
2022/07/29 08:22:01;;;;;;;5.35;3.60;;;;;;;33.92;78.95;154588.00;5094684;28;20303;-67
2022/07/29 08:24:52;;;;;;;2.80;2.67;;;;;;;33.53;80.71;154487.75;5095314;28;20545;-65
2022/07/29 08:27:20;;;;;;;3.55;3.22;;;;;;;33.35;79.61;154442.88;5094477;28;20530;-67
2022/07/29 08:29:49;;;;;;;3.40;3.30;;;;;;;33.46;79.39;154469.81;5096062;28;20188;-66
2022/07/29 08:32:16;;;;;;;3.05;2.75;;;;;;;33.48;79.84;154474.97;5095852;28;20188;-65
2022/07/29 08:34:46;;;;;;;4.45;3.00;;;;;;;33.26;77.30;154418.47;5094990;28;20195;-67
2022/07/29 08:37:13;;;;;;;3.15;2.80;;;;;;;32.93;80.16;154334.97;5095085;28;20195;-66
2022/07/29 08:39:40;;;;;;;10.00;3.17;;;;;;;32.80;77.76;154301.59;5095372;28;20180;-67
2022/07/29 08:42:07;;;;;;;3.50;3.40;;;;;;;32.48;77.28;154220.66;5095252;28;20631;-67
2022/07/29 08:44:37;;;;;;;4.30;3.03;;;;;;;32.34;80.25;154186.00;5094025;28;20232;-67
2022/07/29 08:47:05;;;;;;;5.72;3.00;;;;;;;32.81;78.08;154305.41;5095146;28;20657;-67
2022/07/29 08:49:34;;;;;;;3.13;2.88;;;;;;;32.83;76.15;154310.56;5095424;28;20207;-67
2022/07/29 08:52:02;;;;;;;3.20;2.97;;;;;;;32.99;75.19;154351.66;5094731;28;20188;-67
2022/07/29 08:54:32;;;;;;;3.50;3.20;;;;;;;32.73;73.78;154284.88;5094503;28;20207;-67
2022/07/29 08:56:59;;;;;;;5.35;4.93;;;;;;;32.87;73.13;154320.84;5095307;28;20191;-67
2022/07/29 08:59:28;;;;;;;3.78;3.15;;;;;;;32.69;71.12;154273.34;5093670;28;20195;-66
2022/07/29 09:01:59;;;;;;;5.47;3.28;;;;;;;32.99;71.31;154351.66;5094952;28;20181;-67
2022/07/29 09:04:31;;;;;;;3.47;2.45;;;;;;;32.93;72.01;154336.22;5094611;28;20187;-67
2022/07/29 09:07:01;;;;;;;6.45;3.00;;;;;;;33.01;74.45;154356.81;5094866;28;20607;-67
2022/07/29 09:09:29;;;;;;;4.35;2.70;;;;;;;33.02;70.50;154359.34;5094834;28;20635;-67
2022/07/29 09:11:56;;;;;;;3.47;3.22;;;;;;;33.00;68.13;154354.22;5094113;28;20665;-66
2022/07/29 09:14:23;;;;;;;5.55;2.95;;;;;;;33.40;67.69;154454.38;5094589;28;20211;-68
2022/07/29 09:16:53;;;;;;;3.28;3.10;;;;;;;33.57;66.15;154498.03;5093468;28;20204;-65
2022/07/29 09:19:25;;;;;;;3.17;2.92;;;;;;;33.61;66.66;154508.31;5094215;28;20609;-67
2022/07/29 09:21:57;;;;;;;6.70;3.00;;;;;;;33.79;64.55;154554.59;5094311;28;20551;-68
2022/07/29 09:24:26;;;;;;;2.35;2.22;;;;;;;33.73;67.24;154539.22;5094110;28;20188;-65
2022/07/29 09:26:53;;;;;;;4.32;3.05;;;;;;;33.73;66.67;154537.94;5091962;28;20195;-66
2022/07/29 09:29:21;;;;;;;3.03;2.92;;;;;;;33.49;66.02;154478.78;5093831;28;20184;-68
2022/07/29 09:31:49;;;;;;;2.58;2.47;;;;;;;33.28;67.62;154424.84;5094092;28;20186;-66
2022/07/29 09:34:18;;;;;;;3.10;2.97;;;;;;;32.98;70.36;154349.06;5093435;28;20202;-67
2022/07/29 09:36:47;;;;;;;3.13;2.85;;;;;;;32.83;71.63;154310.56;5091211;28;20274;-67
2022/07/29 09:39:17;;;;;;;2.85;2.65;;;;;;;32.80;75.09;154302.88;5093278;28;20194;-66
2022/07/29 09:41:49;;;;;;;2.90;2.78;;;;;;;32.78;75.79;154296.44;5094610;28;20267;-68
2022/07/29 09:44:16;;;;;;;4.43;4.07;;;;;;;32.78;76.37;154297.72;5094703;28;20203;-67
2022/07/29 09:46:54;;;;;;;7.47;3.00;;;;;;;32.66;79.91;154266.94;5094086;28;20202;-66
2022/07/29 09:49:21;;;;;;;4.05;3.72;;;;;;;32.64;82.69;154261.78;5094196;28;20576;-67
2022/07/29 09:51:48;;;;;;;5.45;3.00;;;;;;;32.51;85.61;154229.66;5093851;28;20192;-66
2022/07/29 09:54:34;;;;;;;2.90;2.80;;;;;;;32.35;86.75;154188.59;5093568;28;20189;-67
2022/07/29 09:57:01;;;;;;;2.92;2.83;;;;;;;31.92;92.37;154078.19;5093391;28;20273;-68
2022/07/29 09:59:28;;;;;;;3.38;3.08;;;;;;;32.29;93.12;154171.94;5093518;28;20238;-67
2022/07/29 10:01:54;;;;;;;2.72;2.58;;;;;;;32.49;92.46;154224.53;5093154;28;20275;-67
2022/07/29 10:04:22;;;;;;;3.85;2.72;;;;;;;32.33;93.24;154183.47;5093179;28;20192;-66
2022/07/29 10:06:59;;;;;;;5.93;2.60;;;;;;;32.41;93.02;154204.00;5093093;28;20208;-65
2022/07/29 10:09:28;;;;;;;5.55;3.08;;;;;;;32.30;92.41;154174.47;5092591;28;20203;-66
2022/07/29 10:12:10;;;;;;;3.35;2.78;;;;;;;31.90;94.35;154074.38;5092647;28;20180;-66
2022/07/29 10:14:38;;;;;;;3.22;3.03;;;;;;;32.05;91.60;154112.84;5092985;28;20211;-68
2022/07/29 10:17:07;;;;;;;5.28;3.05;;;;;;;31.94;91.82;154084.63;5092959;28;20688;-67
2022/07/29 10:19:35;;;;;;;3.67;3.20;;;;;;;31.69;93.76;154020.50;5092883;28;20190;-67
2022/07/29 10:22:04;;;;;;;3.63;3.15;;;;;;;32.09;90.12;154123.16;5092676;28;20180;-67
2022/07/29 10:24:33;;;;;;;4.75;3.15;;;;;;;32.21;89.92;154152.66;5093435;28;20188;-67
2022/07/29 10:27:02;;;;;;;3.00;2.90;;;;;;;32.20;92.39;154148.81;5091945;28;20216;-68
2022/07/29 10:29:31;;;;;;;5.35;2.92;;;;;;;32.45;89.05;154212.97;5092654;28;20204;-67
2022/07/29 10:32:22;;;;;;;7.07;2.95;;;;;;;32.21;88.94;154151.41;5092550;28;20188;-67
2022/07/29 10:35:02;;;;;;;2.67;2.47;;;;;;;31.72;91.19;154028.16;5092710;28;20196;-67
2022/07/29 10:37:38;;;;;;;3.53;2.83;;;;;;;31.64;92.91;154007.66;5092360;28;20189;-67
2022/07/29 10:43:09;;;;;;;4.75;2.67;;;;;;;31.42;89.77;153952.44;5092222;28;20333;-68
2022/07/29 10:45:36;;;;;;;4.22;2.60;;;;;;;31.34;90.57;153931.94;5092533;28;20558;-68
2022/07/29 10:48:06;;;;;;;6.65;2.58;;;;;;;31.38;92.85;153940.91;5092121;28;20184;-69
2022/07/29 10:50:54;;;;;;;4.22;2.75;;;;;;;31.28;91.14;153917.81;5092003;28;20249;-67
2022/07/29 10:53:21;;;;;;;4.43;2.90;;;;;;;31.17;93.24;153889.63;5091902;28;20184;-66
2022/07/29 10:55:50;;;;;;;5.55;2.75;;;;;;;31.25;92.74;153910.13;5091946;28;20203;-67
2022/07/29 10:58:18;;;;;;;2.53;2.42;;;;;;;31.10;91.94;153871.69;5091962;28;20195;-66
2022/07/29 11:00:46;;;;;;;2.83;2.72;;;;;;;30.91;93.88;153821.59;5091757;28;20185;-67
2022/07/29 11:03:44;;;;;;;3.05;2.95;;;;;;;31.03;90.04;153853.69;5092340;28;20221;-65
2022/07/29 11:06:11;;;;;;;2.92;2.63;;;;;;;30.89;90.66;153816.50;5091916;28;20180;-66
2022/07/29 11:08:38;;;;;;;7.05;3.00;;;;;;;30.91;92.25;153821.59;5092043;28;20634;-66
2022/07/29 11:11:35;;;;;;;2.67;2.58;;;;;;;30.82;92.68;153799.78;5091678;28;20190;-66
2022/07/29 11:14:02;;;;;;;6.13;5.68;;;;;;;30.81;93.42;153797.22;5067710;28;20286;-65
2022/07/29 11:17:05;;;;;;;3.60;3.40;;;;;;;30.69;96.14;153767.75;5091968;28;20204;-66
2022/07/29 11:19:32;;;;;;;3.00;2.90;;;;;;;30.75;95.56;153781.88;5091555;28;20211;-66
2022/07/29 11:21:59;;;;;;;4.38;3.28;;;;;;;30.74;96.79;153779.28;5091660;28;20275;-65
2022/07/29 11:24:32;;;;;;;3.35;3.15;;;;;;;30.68;94.71;153763.94;5091793;28;20271;-68
2022/07/29 11:27:14;;;;;;;3.08;2.95;;;;;;;30.79;96.75;153792.13;5090641;28;20176;-67
2022/07/29 11:29:49;;;;;;;2.88;2.78;;;;;;;30.77;93.83;153786.97;5091970;28;20577;-65
2022/07/29 11:32:19;;;;;;;4.20;3.20;;;;;;;30.80;97.00;153795.97;5090668;28;20184;-66
2022/07/29 11:34:48;;;;;;;2.70;2.60;;;;;;;30.51;99.11;153720.34;5092269;28;20183;-68